sensor_id;sensor_type;location;lat;lon;timestamp;temperature;humidity
26964;DHT22;14521;48.148;-1.656;2023-03-11T00:01:20;18.40;77.30
26964;DHT22;14521;48.148;-1.656;2023-03-11T00:04:42;18.40;77.30
26964;DHT22;14521;48.148;-1.656;2023-03-11T00:08:05;18.30;77.40
26964;DHT22;14521;48.148;-1.656;2023-03-11T00:11:28;18.30;77.50
26964;DHT22;14521;48.148;-1.656;2023-03-11T00:14:50;18.30;77.50
26964;DHT22;14521;48.148;-1.656;2023-03-11T00:18:13;18.30;77.60
26964;DHT22;14521;48.148;-1.656;2023-03-11T00:21:35;18.30;77.60
26964;DHT22;14521;48.148;-1.656;2023-03-11T00:24:57;18.20;77.60
26964;DHT22;14521;48.148;-1.656;2023-03-11T00:28:19;18.20;77.60
26964;DHT22;14521;48.148;-1.656;2023-03-11T00:31:46;18.20;77.60
26964;DHT22;14521;48.148;-1.656;2023-03-11T00:35:12;18.20;77.60
26964;DHT22;14521;48.148;-1.656;2023-03-11T00:38:35;18.20;77.70
26964;DHT22;14521;48.148;-1.656;2023-03-11T00:41:57;18.20;77.80
26964;DHT22;14521;48.148;-1.656;2023-03-11T00:45:20;18.20;77.70
26964;DHT22;14521;48.148;-1.656;2023-03-11T00:48:43;18.20;77.70
26964;DHT22;14521;48.148;-1.656;2023-03-11T00:52:05;18.20;77.60
26964;DHT22;14521;48.148;-1.656;2023-03-11T00:55:31;18.20;77.60
26964;DHT22;14521;48.148;-1.656;2023-03-11T00:58:55;18.10;77.60
26964;DHT22;14521;48.148;-1.656;2023-03-11T01:02:18;18.20;77.60
26964;DHT22;14521;48.148;-1.656;2023-03-11T01:05:41;18.10;77.50
26964;DHT22;14521;48.148;-1.656;2023-03-11T01:09:03;18.10;77.60
26964;DHT22;14521;48.148;-1.656;2023-03-11T01:12:26;18.10;77.60
26964;DHT22;14521;48.148;-1.656;2023-03-11T01:15:48;18.10;77.60
26964;DHT22;14521;48.148;-1.656;2023-03-11T01:19:10;18.10;77.60
26964;DHT22;14521;48.148;-1.656;2023-03-11T01:22:33;18.10;77.60
26964;DHT22;14521;48.148;-1.656;2023-03-11T01:25:55;18.10;77.60
26964;DHT22;14521;48.148;-1.656;2023-03-11T01:29:20;18.10;77.50
26964;DHT22;14521;48.148;-1.656;2023-03-11T01:32:42;18.10;77.40
26964;DHT22;14521;48.148;-1.656;2023-03-11T01:36:05;18.10;77.50
26964;DHT22;14521;48.148;-1.656;2023-03-11T01:39:27;18.10;77.50
26964;DHT22;14521;48.148;-1.656;2023-03-11T01:42:49;18.00;77.50
26964;DHT22;14521;48.148;-1.656;2023-03-11T01:49:47;18.00;77.50
26964;DHT22;14521;48.148;-1.656;2023-03-11T01:53:09;18.00;77.40
26964;DHT22;14521;48.148;-1.656;2023-03-11T01:56:34;18.00;77.30
26964;DHT22;14521;48.148;-1.656;2023-03-11T01:59:57;18.00;77.40
26964;DHT22;14521;48.148;-1.656;2023-03-11T02:03:23;18.00;77.50
26964;DHT22;14521;48.148;-1.656;2023-03-11T02:06:48;18.00;77.50
26964;DHT22;14521;48.148;-1.656;2023-03-11T02:10:12;18.00;77.50
26964;DHT22;14521;48.148;-1.656;2023-03-11T02:13:34;18.00;77.50
26964;DHT22;14521;48.148;-1.656;2023-03-11T02:16:57;18.00;77.50
26964;DHT22;14521;48.148;-1.656;2023-03-11T02:23:56;18.00;77.50
26964;DHT22;14521;48.148;-1.656;2023-03-11T02:27:21;18.00;77.50
26964;DHT22;14521;48.148;-1.656;2023-03-11T02:30:44;18.00;77.50
26964;DHT22;14521;48.148;-1.656;2023-03-11T02:34:08;18.00;77.40
26964;DHT22;14521;48.148;-1.656;2023-03-11T02:37:33;18.00;77.50
26964;DHT22;14521;48.148;-1.656;2023-03-11T02:41:00;17.90;77.50
26964;DHT22;14521;48.148;-1.656;2023-03-11T02:44:23;18.00;77.50
26964;DHT22;14521;48.148;-1.656;2023-03-11T02:47:46;17.90;77.30
26964;DHT22;14521;48.148;-1.656;2023-03-11T02:51:09;17.90;77.30
26964;DHT22;14521;48.148;-1.656;2023-03-11T02:54:31;17.90;77.30
26964;DHT22;14521;48.148;-1.656;2023-03-11T02:57:53;17.90;77.30
26964;DHT22;14521;48.148;-1.656;2023-03-11T03:01:15;17.90;77.30
26964;DHT22;14521;48.148;-1.656;2023-03-11T03:04:39;17.90;77.30
26964;DHT22;14521;48.148;-1.656;2023-03-11T03:08:02;17.90;77.30
26964;DHT22;14521;48.148;-1.656;2023-03-11T03:11:24;17.90;77.20
26964;DHT22;14521;48.148;-1.656;2023-03-11T03:14:46;17.90;77.30
26964;DHT22;14521;48.148;-1.656;2023-03-11T03:18:10;17.90;77.30
26964;DHT22;14521;48.148;-1.656;2023-03-11T03:21:33;17.90;77.20
26964;DHT22;14521;48.148;-1.656;2023-03-11T03:24:55;17.90;77.30
26964;DHT22;14521;48.148;-1.656;2023-03-11T03:28:18;17.90;77.30
26964;DHT22;14521;48.148;-1.656;2023-03-11T03:31:40;17.90;77.20
26964;DHT22;14521;48.148;-1.656;2023-03-11T03:35:03;17.90;77.20
26964;DHT22;14521;48.148;-1.656;2023-03-11T03:38:52;17.90;77.20
26964;DHT22;14521;48.148;-1.656;2023-03-11T03:42:14;17.90;77.20
26964;DHT22;14521;48.148;-1.656;2023-03-11T03:45:36;17.90;78.00
26964;DHT22;14521;48.148;-1.656;2023-03-11T03:48:59;17.90;77.30
26964;DHT22;14521;48.148;-1.656;2023-03-11T03:52:23;17.90;77.30
26964;DHT22;14521;48.148;-1.656;2023-03-11T03:55:45;17.80;77.20
26964;DHT22;14521;48.148;-1.656;2023-03-11T03:59:08;17.80;77.20
26964;DHT22;14521;48.148;-1.656;2023-03-11T04:02:35;17.80;77.20
26964;DHT22;14521;48.148;-1.656;2023-03-11T04:09:37;17.80;77.10
26964;DHT22;14521;48.148;-1.656;2023-03-11T04:13:00;17.80;77.10
26964;DHT22;14521;48.148;-1.656;2023-03-11T04:16:23;17.80;77.10
26964;DHT22;14521;48.148;-1.656;2023-03-11T04:19:51;17.80;77.00
26964;DHT22;14521;48.148;-1.656;2023-03-11T04:23:13;17.80;77.00
26964;DHT22;14521;48.148;-1.656;2023-03-11T04:26:36;17.80;77.00
26964;DHT22;14521;48.148;-1.656;2023-03-11T04:30:02;17.80;77.10
26964;DHT22;14521;48.148;-1.656;2023-03-11T04:33:26;17.70;77.10
26964;DHT22;14521;48.148;-1.656;2023-03-11T04:36:50;17.70;77.00
26964;DHT22;14521;48.148;-1.656;2023-03-11T04:40:15;17.70;77.00
26964;DHT22;14521;48.148;-1.656;2023-03-11T04:43:37;17.70;77.00
26964;DHT22;14521;48.148;-1.656;2023-03-11T04:46:59;17.70;77.00
26964;DHT22;14521;48.148;-1.656;2023-03-11T04:50:22;17.70;77.00
26964;DHT22;14521;48.148;-1.656;2023-03-11T04:53:46;17.80;77.00
26964;DHT22;14521;48.148;-1.656;2023-03-11T04:57:08;17.70;77.00
26964;DHT22;14521;48.148;-1.656;2023-03-11T05:00:34;17.70;77.00
26964;DHT22;14521;48.148;-1.656;2023-03-11T05:04:01;17.70;77.00
26964;DHT22;14521;48.148;-1.656;2023-03-11T05:07:24;17.70;77.00
26964;DHT22;14521;48.148;-1.656;2023-03-11T05:10:46;17.70;77.00
26964;DHT22;14521;48.148;-1.656;2023-03-11T05:14:09;17.80;76.80
26964;DHT22;14521;48.148;-1.656;2023-03-11T05:17:31;17.90;76.60
26964;DHT22;14521;48.148;-1.656;2023-03-11T05:20:54;18.00;76.70
26964;DHT22;14521;48.148;-1.656;2023-03-11T05:24:20;18.00;76.70
26964;DHT22;14521;48.148;-1.656;2023-03-11T05:27:42;18.10;76.90
26964;DHT22;14521;48.148;-1.656;2023-03-11T05:31:08;18.20;76.80
26964;DHT22;14521;48.148;-1.656;2023-03-11T05:34:32;18.20;76.80
26964;DHT22;14521;48.148;-1.656;2023-03-11T05:37:55;18.20;76.80
26964;DHT22;14521;48.148;-1.656;2023-03-11T05:41:21;18.30;76.60
26964;DHT22;14521;48.148;-1.656;2023-03-11T05:44:44;18.30;76.30
26964;DHT22;14521;48.148;-1.656;2023-03-11T05:48:06;18.40;76.30
26964;DHT22;14521;48.148;-1.656;2023-03-11T05:51:31;18.40;76.20
26964;DHT22;14521;48.148;-1.656;2023-03-11T05:54:53;18.50;76.30
26964;DHT22;14521;48.148;-1.656;2023-03-11T05:58:19;18.50;76.20
26964;DHT22;14521;48.148;-1.656;2023-03-11T06:01:43;18.50;76.00
26964;DHT22;14521;48.148;-1.656;2023-03-11T06:05:06;18.60;76.10
26964;DHT22;14521;48.148;-1.656;2023-03-11T06:08:30;18.60;76.00
26964;DHT22;14521;48.148;-1.656;2023-03-11T06:11:56;18.60;76.00
26964;DHT22;14521;48.148;-1.656;2023-03-11T06:15:25;18.70;76.10
26964;DHT22;14521;48.148;-1.656;2023-03-11T06:18:48;18.70;75.70
26964;DHT22;14521;48.148;-1.656;2023-03-11T06:22:10;18.70;76.10
26964;DHT22;14521;48.148;-1.656;2023-03-11T06:25:33;18.70;76.00
26964;DHT22;14521;48.148;-1.656;2023-03-11T06:28:55;18.70;76.00
26964;DHT22;14521;48.148;-1.656;2023-03-11T06:32:17;18.80;76.10
26964;DHT22;14521;48.148;-1.656;2023-03-11T06:35:40;18.80;76.40
26964;DHT22;14521;48.148;-1.656;2023-03-11T06:39:03;18.80;76.10
26964;DHT22;14521;48.148;-1.656;2023-03-11T06:42:25;18.80;76.10
26964;DHT22;14521;48.148;-1.656;2023-03-11T06:45:51;18.80;76.10
26964;DHT22;14521;48.148;-1.656;2023-03-11T06:49:13;18.80;76.00
26964;DHT22;14521;48.148;-1.656;2023-03-11T06:52:36;18.90;76.10
26964;DHT22;14521;48.148;-1.656;2023-03-11T06:56:05;18.90;75.80
26964;DHT22;14521;48.148;-1.656;2023-03-11T06:59:34;19.00;75.60
26964;DHT22;14521;48.148;-1.656;2023-03-11T07:02:57;19.00;75.80
26964;DHT22;14521;48.148;-1.656;2023-03-11T07:06:21;19.10;77.80
26964;DHT22;14521;48.148;-1.656;2023-03-11T07:09:45;19.00;77.90
26964;DHT22;14521;48.148;-1.656;2023-03-11T07:13:08;19.10;77.50
26964;DHT22;14521;48.148;-1.656;2023-03-11T07:16:31;19.10;77.70
26964;DHT22;14521;48.148;-1.656;2023-03-11T07:20:00;19.00;77.90
26964;DHT22;14521;48.148;-1.656;2023-03-11T07:23:22;19.10;77.70
26964;DHT22;14521;48.148;-1.656;2023-03-11T07:26:44;19.00;77.90
26964;DHT22;14521;48.148;-1.656;2023-03-11T07:30:07;19.00;78.20
26964;DHT22;14521;48.148;-1.656;2023-03-11T07:33:29;19.10;78.40
26964;DHT22;14521;48.148;-1.656;2023-03-11T07:36:55;19.10;78.50
26964;DHT22;14521;48.148;-1.656;2023-03-11T07:40:17;19.10;77.90
26964;DHT22;14521;48.148;-1.656;2023-03-11T07:43:40;19.00;77.90
26964;DHT22;14521;48.148;-1.656;2023-03-11T07:47:03;19.00;77.80
26964;DHT22;14521;48.148;-1.656;2023-03-11T07:50:25;19.00;78.20
26964;DHT22;14521;48.148;-1.656;2023-03-11T07:53:48;19.10;78.50
26964;DHT22;14521;48.148;-1.656;2023-03-11T07:57:10;19.10;77.00
26964;DHT22;14521;48.148;-1.656;2023-03-11T08:00:37;19.10;78.30
26964;DHT22;14521;48.148;-1.656;2023-03-11T08:04:00;19.00;77.90
26964;DHT22;14521;48.148;-1.656;2023-03-11T08:07:22;19.00;77.90
26964;DHT22;14521;48.148;-1.656;2023-03-11T08:10:44;19.00;78.30
26964;DHT22;14521;48.148;-1.656;2023-03-11T08:14:07;18.90;78.90
26964;DHT22;14521;48.148;-1.656;2023-03-11T08:17:29;18.80;78.80
26964;DHT22;14521;48.148;-1.656;2023-03-11T08:20:51;18.80;78.50
26964;DHT22;14521;48.148;-1.656;2023-03-11T08:24:13;18.90;78.40
26964;DHT22;14521;48.148;-1.656;2023-03-11T08:27:35;18.80;77.80
26964;DHT22;14521;48.148;-1.656;2023-03-11T08:30:58;18.80;77.80
26964;DHT22;14521;48.148;-1.656;2023-03-11T08:34:20;18.70;77.60
26964;DHT22;14521;48.148;-1.656;2023-03-11T08:37:43;18.70;77.50
26964;DHT22;14521;48.148;-1.656;2023-03-11T08:41:05;18.70;77.60
26964;DHT22;14521;48.148;-1.656;2023-03-11T08:44:27;18.70;77.50
26964;DHT22;14521;48.148;-1.656;2023-03-11T08:47:50;18.70;77.50
26964;DHT22;14521;48.148;-1.656;2023-03-11T08:51:12;18.70;77.40
26964;DHT22;14521;48.148;-1.656;2023-03-11T08:54:34;18.60;77.20
26964;DHT22;14521;48.148;-1.656;2023-03-11T08:57:56;18.60;77.20
26964;DHT22;14521;48.148;-1.656;2023-03-11T09:01:19;18.60;77.10
26964;DHT22;14521;48.148;-1.656;2023-03-11T09:04:41;18.60;77.10
26964;DHT22;14521;48.148;-1.656;2023-03-11T09:08:03;18.50;77.00
26964;DHT22;14521;48.148;-1.656;2023-03-11T09:11:26;18.50;76.90
26964;DHT22;14521;48.148;-1.656;2023-03-11T09:14:49;18.50;76.80
26964;DHT22;14521;48.148;-1.656;2023-03-11T09:18:12;18.50;76.90
26964;DHT22;14521;48.148;-1.656;2023-03-11T09:21:34;18.50;76.80
26964;DHT22;14521;48.148;-1.656;2023-03-11T09:24:57;18.50;76.70
26964;DHT22;14521;48.148;-1.656;2023-03-11T09:28:19;18.50;76.70
26964;DHT22;14521;48.148;-1.656;2023-03-11T09:31:41;18.40;76.70
26964;DHT22;14521;48.148;-1.656;2023-03-11T09:35:03;18.50;76.60
26964;DHT22;14521;48.148;-1.656;2023-03-11T09:38:26;18.40;76.60
26964;DHT22;14521;48.148;-1.656;2023-03-11T09:41:51;18.40;76.50
26964;DHT22;14521;48.148;-1.656;2023-03-11T09:45:23;18.40;76.50
26964;DHT22;14521;48.148;-1.656;2023-03-11T09:49:34;18.40;76.50
26964;DHT22;14521;48.148;-1.656;2023-03-11T09:52:31;18.40;76.80
26964;DHT22;14521;48.148;-1.656;2023-03-11T09:56:00;18.40;77.50
26964;DHT22;14521;48.148;-1.656;2023-03-11T09:59:29;18.40;78.10
26964;DHT22;14521;48.148;-1.656;2023-03-11T10:02:52;18.40;78.20
26964;DHT22;14521;48.148;-1.656;2023-03-11T10:16:34;18.50;79.30
26964;DHT22;14521;48.148;-1.656;2023-03-11T10:20:09;18.50;79.40
26964;DHT22;14521;48.148;-1.656;2023-03-11T10:27:06;18.50;79.40
26964;DHT22;14521;48.148;-1.656;2023-03-11T10:30:50;18.60;79.60
26964;DHT22;14521;48.148;-1.656;2023-03-11T10:34:20;18.60;79.70
26964;DHT22;14521;48.148;-1.656;2023-03-11T10:37:57;18.60;79.80
26964;DHT22;14521;48.148;-1.656;2023-03-11T10:45:03;18.50;79.60
26964;DHT22;14521;48.148;-1.656;2023-03-11T10:48:25;18.60;79.80
26964;DHT22;14521;48.148;-1.656;2023-03-11T10:51:49;18.50;79.70
26964;DHT22;14521;48.148;-1.656;2023-03-11T10:55:12;18.50;79.80
26964;DHT22;14521;48.148;-1.656;2023-03-11T10:58:40;18.50;79.80
26964;DHT22;14521;48.148;-1.656;2023-03-11T11:05:41;18.50;80.00
26964;DHT22;14521;48.148;-1.656;2023-03-11T11:09:16;18.50;79.80
26964;DHT22;14521;48.148;-1.656;2023-03-11T11:12:51;18.50;80.00
26964;DHT22;14521;48.148;-1.656;2023-03-11T11:19:42;18.50;80.00
26964;DHT22;14521;48.148;-1.656;2023-03-11T11:23:04;18.50;80.20
26964;DHT22;14521;48.148;-1.656;2023-03-11T11:26:26;18.50;80.30
26964;DHT22;14521;48.148;-1.656;2023-03-11T11:33:30;18.50;80.30
26964;DHT22;14521;48.148;-1.656;2023-03-11T11:36:53;18.50;80.10
26964;DHT22;14521;48.148;-1.656;2023-03-11T11:40:20;18.50;80.00
26964;DHT22;14521;48.148;-1.656;2023-03-11T11:43:48;18.50;79.90
26964;DHT22;14521;48.148;-1.656;2023-03-11T11:47:12;18.50;80.00
26964;DHT22;14521;48.148;-1.656;2023-03-11T11:50:40;18.40;79.80
26964;DHT22;14521;48.148;-1.656;2023-03-11T11:57:34;18.40;79.80
26964;DHT22;14521;48.148;-1.656;2023-03-11T12:01:14;18.40;79.80
26964;DHT22;14521;48.148;-1.656;2023-03-11T12:11:38;18.40;79.60
26964;DHT22;14521;48.148;-1.656;2023-03-11T12:18:31;18.40;79.50
26964;DHT22;14521;48.148;-1.656;2023-03-11T12:25:26;18.40;79.50
26964;DHT22;14521;48.148;-1.656;2023-03-11T12:32:28;18.40;79.30
26964;DHT22;14521;48.148;-1.656;2023-03-11T12:35:54;18.40;80.10
26964;DHT22;14521;48.148;-1.656;2023-03-11T12:42:42;18.30;79.30
26964;DHT22;14521;48.148;-1.656;2023-03-11T12:46:07;18.40;79.30
26964;DHT22;14521;48.148;-1.656;2023-03-11T12:49:34;18.40;79.30
26964;DHT22;14521;48.148;-1.656;2023-03-11T12:52:56;18.40;79.30
26964;DHT22;14521;48.148;-1.656;2023-03-11T13:10:37;18.40;79.30
26964;DHT22;14521;48.148;-1.656;2023-03-11T13:14:09;18.40;79.30
26964;DHT22;14521;48.148;-1.656;2023-03-11T13:17:37;18.40;79.30
26964;DHT22;14521;48.148;-1.656;2023-03-11T13:21:00;18.40;79.30
26964;DHT22;14521;48.148;-1.656;2023-03-11T13:27:47;18.40;79.30
26964;DHT22;14521;48.148;-1.656;2023-03-11T13:41:31;18.40;79.50
26964;DHT22;14521;48.148;-1.656;2023-03-11T13:44:56;18.40;79.50
26964;DHT22;14521;48.148;-1.656;2023-03-11T13:51:42;18.40;79.80
26964;DHT22;14521;48.148;-1.656;2023-03-11T13:55:20;18.40;80.00
26964;DHT22;14521;48.148;-1.656;2023-03-11T13:58:43;18.40;80.10
26964;DHT22;14521;48.148;-1.656;2023-03-11T14:05:31;18.50;80.20
26964;DHT22;14521;48.148;-1.656;2023-03-11T14:08:54;18.50;80.50
26964;DHT22;14521;48.148;-1.656;2023-03-11T14:12:16;18.50;80.80
26964;DHT22;14521;48.148;-1.656;2023-03-11T14:15:44;18.60;80.80
26964;DHT22;14521;48.148;-1.656;2023-03-11T14:19:14;18.60;80.80
26964;DHT22;14521;48.148;-1.656;2023-03-11T14:22:36;18.60;80.80
26964;DHT22;14521;48.148;-1.656;2023-03-11T14:25:59;18.70;81.10
26964;DHT22;14521;48.148;-1.656;2023-03-11T14:29:31;18.70;81.30
26964;DHT22;14521;48.148;-1.656;2023-03-11T14:36:22;18.80;81.70
26964;DHT22;14521;48.148;-1.656;2023-03-11T14:39:44;18.80;82.10
26964;DHT22;14521;48.148;-1.656;2023-03-11T14:43:10;18.80;82.20
26964;DHT22;14521;48.148;-1.656;2023-03-11T14:46:32;18.90;81.80
26964;DHT22;14521;48.148;-1.656;2023-03-11T14:49:54;19.00;82.30
26964;DHT22;14521;48.148;-1.656;2023-03-11T14:56:39;19.10;82.40
26964;DHT22;14521;48.148;-1.656;2023-03-11T15:00:04;19.10;82.40
26964;DHT22;14521;48.148;-1.656;2023-03-11T15:03:32;19.10;82.70
26964;DHT22;14521;48.148;-1.656;2023-03-11T15:06:55;19.00;81.00
26964;DHT22;14521;48.148;-1.656;2023-03-11T15:10:17;19.00;81.20
26964;DHT22;14521;48.148;-1.656;2023-03-11T15:13:40;19.00;81.50
26964;DHT22;14521;48.148;-1.656;2023-03-11T15:20:38;19.00;82.30
26964;DHT22;14521;48.148;-1.656;2023-03-11T15:24:01;19.00;83.00
26964;DHT22;14521;48.148;-1.656;2023-03-11T15:31:12;19.10;83.00
26964;DHT22;14521;48.148;-1.656;2023-03-11T15:34:33;19.10;83.10
26964;DHT22;14521;48.148;-1.656;2023-03-11T15:41:37;19.00;83.00
26964;DHT22;14521;48.148;-1.656;2023-03-11T15:45:07;19.00;83.00
26964;DHT22;14521;48.148;-1.656;2023-03-11T15:48:30;19.10;83.20
26964;DHT22;14521;48.148;-1.656;2023-03-11T15:51:52;19.00;82.70
26964;DHT22;14521;48.148;-1.656;2023-03-11T15:55:18;19.10;82.90
26964;DHT22;14521;48.148;-1.656;2023-03-11T15:58:41;19.10;82.60
26964;DHT22;14521;48.148;-1.656;2023-03-11T16:02:05;19.00;82.60
26964;DHT22;14521;48.148;-1.656;2023-03-11T16:05:36;19.10;82.60
26964;DHT22;14521;48.148;-1.656;2023-03-11T16:08:58;19.10;82.60
26964;DHT22;14521;48.148;-1.656;2023-03-11T16:12:21;19.10;82.70
26964;DHT22;14521;48.148;-1.656;2023-03-11T16:15:44;19.10;83.00
26964;DHT22;14521;48.148;-1.656;2023-03-11T16:19:08;19.10;82.80
26964;DHT22;14521;48.148;-1.656;2023-03-11T16:22:31;19.00;82.80
26964;DHT22;14521;48.148;-1.656;2023-03-11T16:25:59;19.00;82.90
26964;DHT22;14521;48.148;-1.656;2023-03-11T16:29:21;19.10;82.80
26964;DHT22;14521;48.148;-1.656;2023-03-11T16:32:45;19.00;82.80
26964;DHT22;14521;48.148;-1.656;2023-03-11T16:36:07;19.00;82.80
26964;DHT22;14521;48.148;-1.656;2023-03-11T16:39:29;19.10;82.70
26964;DHT22;14521;48.148;-1.656;2023-03-11T16:42:56;19.00;82.80
26964;DHT22;14521;48.148;-1.656;2023-03-11T16:46:19;19.10;82.80
26964;DHT22;14521;48.148;-1.656;2023-03-11T16:49:42;19.00;83.20
26964;DHT22;14521;48.148;-1.656;2023-03-11T16:53:04;19.00;83.20
26964;DHT22;14521;48.148;-1.656;2023-03-11T16:56:26;19.00;83.20
26964;DHT22;14521;48.148;-1.656;2023-03-11T16:59:48;19.00;83.40
26964;DHT22;14521;48.148;-1.656;2023-03-11T17:03:11;19.00;83.50
26964;DHT22;14521;48.148;-1.656;2023-03-11T17:06:34;18.90;83.60
26964;DHT22;14521;48.148;-1.656;2023-03-11T17:09:56;18.90;83.80
26964;DHT22;14521;48.148;-1.656;2023-03-11T17:13:18;18.90;83.60
26964;DHT22;14521;48.148;-1.656;2023-03-11T17:16:41;18.90;83.50
26964;DHT22;14521;48.148;-1.656;2023-03-11T17:20:03;18.90;83.40
26964;DHT22;14521;48.148;-1.656;2023-03-11T17:23:27;18.90;83.40
26964;DHT22;14521;48.148;-1.656;2023-03-11T17:26:50;18.90;83.30
26964;DHT22;14521;48.148;-1.656;2023-03-11T17:30:12;18.90;83.60
26964;DHT22;14521;48.148;-1.656;2023-03-11T17:33:45;18.90;83.80
26964;DHT22;14521;48.148;-1.656;2023-03-11T17:37:07;19.00;83.90
26964;DHT22;14521;48.148;-1.656;2023-03-11T17:40:29;19.00;84.10
26964;DHT22;14521;48.148;-1.656;2023-03-11T17:43:53;19.00;84.20
26964;DHT22;14521;48.148;-1.656;2023-03-11T17:47:15;19.00;84.20
26964;DHT22;14521;48.148;-1.656;2023-03-11T17:50:38;19.00;84.20
26964;DHT22;14521;48.148;-1.656;2023-03-11T17:54:01;19.00;84.50
26964;DHT22;14521;48.148;-1.656;2023-03-11T17:57:23;19.00;84.60
26964;DHT22;14521;48.148;-1.656;2023-03-11T18:00:45;19.00;84.60
26964;DHT22;14521;48.148;-1.656;2023-03-11T18:04:07;19.00;84.30
26964;DHT22;14521;48.148;-1.656;2023-03-11T18:07:29;19.00;84.30
26964;DHT22;14521;48.148;-1.656;2023-03-11T18:10:52;19.00;84.40
26964;DHT22;14521;48.148;-1.656;2023-03-11T18:14:15;19.00;84.50
26964;DHT22;14521;48.148;-1.656;2023-03-11T18:17:37;19.10;85.00
26964;DHT22;14521;48.148;-1.656;2023-03-11T18:21:19;19.10;85.50
26964;DHT22;14521;48.148;-1.656;2023-03-11T18:24:41;19.10;85.60
26964;DHT22;14521;48.148;-1.656;2023-03-11T18:28:03;19.10;85.20
26964;DHT22;14521;48.148;-1.656;2023-03-11T18:31:26;19.00;85.30
26964;DHT22;14521;48.148;-1.656;2023-03-11T18:34:49;19.10;85.40
26964;DHT22;14521;48.148;-1.656;2023-03-11T18:38:12;19.10;85.00
26964;DHT22;14521;48.148;-1.656;2023-03-11T18:41:34;19.10;85.60
26964;DHT22;14521;48.148;-1.656;2023-03-11T18:44:56;19.10;85.10
26964;DHT22;14521;48.148;-1.656;2023-03-11T18:48:18;19.10;84.90
26964;DHT22;14521;48.148;-1.656;2023-03-11T18:51:41;19.10;84.90
26964;DHT22;14521;48.148;-1.656;2023-03-11T18:55:03;19.10;84.80
26964;DHT22;14521;48.148;-1.656;2023-03-11T18:58:26;19.00;84.70
26964;DHT22;14521;48.148;-1.656;2023-03-11T19:01:48;19.10;84.80
26964;DHT22;14521;48.148;-1.656;2023-03-11T19:05:11;19.00;84.80
26964;DHT22;14521;48.148;-1.656;2023-03-11T19:08:33;19.10;84.70
26964;DHT22;14521;48.148;-1.656;2023-03-11T19:11:55;19.00;85.20
26964;DHT22;14521;48.148;-1.656;2023-03-11T19:15:17;19.00;85.00
26964;DHT22;14521;48.148;-1.656;2023-03-11T19:18:40;19.10;85.00
26964;DHT22;14521;48.148;-1.656;2023-03-11T19:22:02;19.00;84.60
26964;DHT22;14521;48.148;-1.656;2023-03-11T19:25:24;19.00;84.80
26964;DHT22;14521;48.148;-1.656;2023-03-11T19:28:48;19.10;85.00
26964;DHT22;14521;48.148;-1.656;2023-03-11T19:32:10;19.10;84.90
26964;DHT22;14521;48.148;-1.656;2023-03-11T19:35:33;19.00;85.80
26964;DHT22;14521;48.148;-1.656;2023-03-11T19:38:55;19.00;85.30
26964;DHT22;14521;48.148;-1.656;2023-03-11T19:42:17;19.00;85.20
26964;DHT22;14521;48.148;-1.656;2023-03-11T19:45:39;19.00;85.20
26964;DHT22;14521;48.148;-1.656;2023-03-11T19:49:02;19.00;84.90
26964;DHT22;14521;48.148;-1.656;2023-03-11T19:52:24;19.00;84.80
26964;DHT22;14521;48.148;-1.656;2023-03-11T19:55:48;19.00;84.70
26964;DHT22;14521;48.148;-1.656;2023-03-11T19:59:11;19.00;84.60
26964;DHT22;14521;48.148;-1.656;2023-03-11T20:02:33;18.90;84.50
26964;DHT22;14521;48.148;-1.656;2023-03-11T20:05:55;19.00;84.60
26964;DHT22;14521;48.148;-1.656;2023-03-11T20:09:23;18.90;84.40
26964;DHT22;14521;48.148;-1.656;2023-03-11T20:12:45;18.90;84.30
26964;DHT22;14521;48.148;-1.656;2023-03-11T20:16:23;18.90;84.30
26964;DHT22;14521;48.148;-1.656;2023-03-11T20:19:45;18.90;84.30
26964;DHT22;14521;48.148;-1.656;2023-03-11T20:23:07;18.90;84.30
26964;DHT22;14521;48.148;-1.656;2023-03-11T20:26:29;18.90;84.40
26964;DHT22;14521;48.148;-1.656;2023-03-11T20:29:52;18.90;84.30
26964;DHT22;14521;48.148;-1.656;2023-03-11T20:33:15;18.90;84.40
26964;DHT22;14521;48.148;-1.656;2023-03-11T20:36:37;18.80;84.60
26964;DHT22;14521;48.148;-1.656;2023-03-11T20:39:59;18.80;84.60
26964;DHT22;14521;48.148;-1.656;2023-03-11T20:43:21;18.80;84.90
26964;DHT22;14521;48.148;-1.656;2023-03-11T20:46:44;18.80;84.90
26964;DHT22;14521;48.148;-1.656;2023-03-11T20:50:06;18.80;85.10
26964;DHT22;14521;48.148;-1.656;2023-03-11T20:53:29;18.80;85.00
26964;DHT22;14521;48.148;-1.656;2023-03-11T20:56:52;18.80;85.00
26964;DHT22;14521;48.148;-1.656;2023-03-11T21:00:14;18.80;85.00
26964;DHT22;14521;48.148;-1.656;2023-03-11T21:03:37;18.80;85.20
26964;DHT22;14521;48.148;-1.656;2023-03-11T21:06:59;18.70;86.00
26964;DHT22;14521;48.148;-1.656;2023-03-11T21:10:21;18.70;86.10
26964;DHT22;14521;48.148;-1.656;2023-03-11T21:13:43;18.80;85.00
26964;DHT22;14521;48.148;-1.656;2023-03-11T21:17:06;18.70;84.90
26964;DHT22;14521;48.148;-1.656;2023-03-11T21:20:28;18.80;85.30
26964;DHT22;14521;48.148;-1.656;2023-03-11T21:23:50;18.70;85.40
26964;DHT22;14521;48.148;-1.656;2023-03-11T21:27:13;18.80;85.90
26964;DHT22;14521;48.148;-1.656;2023-03-11T21:30:35;18.80;85.90
26964;DHT22;14521;48.148;-1.656;2023-03-11T21:33:58;18.70;86.50
26964;DHT22;14521;48.148;-1.656;2023-03-11T21:37:20;18.70;87.30
26964;DHT22;14521;48.148;-1.656;2023-03-11T21:40:42;18.70;88.30
26964;DHT22;14521;48.148;-1.656;2023-03-11T21:44:05;18.70;88.20
26964;DHT22;14521;48.148;-1.656;2023-03-11T21:47:27;18.70;88.30
26964;DHT22;14521;48.148;-1.656;2023-03-11T21:50:50;18.70;88.30
26964;DHT22;14521;48.148;-1.656;2023-03-11T21:54:13;18.60;87.10
26964;DHT22;14521;48.148;-1.656;2023-03-11T21:57:36;18.70;85.80
26964;DHT22;14521;48.148;-1.656;2023-03-11T22:00:58;18.70;85.70
26964;DHT22;14521;48.148;-1.656;2023-03-11T22:04:21;18.70;85.50
26964;DHT22;14521;48.148;-1.656;2023-03-11T22:07:43;18.70;85.20
26964;DHT22;14521;48.148;-1.656;2023-03-11T22:11:06;18.60;85.50
26964;DHT22;14521;48.148;-1.656;2023-03-11T22:14:28;18.60;86.20
26964;DHT22;14521;48.148;-1.656;2023-03-11T22:17:51;18.70;87.20
26964;DHT22;14521;48.148;-1.656;2023-03-11T22:21:13;18.60;87.50
26964;DHT22;14521;48.148;-1.656;2023-03-11T22:24:36;18.60;87.20
26964;DHT22;14521;48.148;-1.656;2023-03-11T22:27:58;18.60;87.40
26964;DHT22;14521;48.148;-1.656;2023-03-11T22:31:21;18.60;87.30
26964;DHT22;14521;48.148;-1.656;2023-03-11T22:34:43;18.60;85.70
26964;DHT22;14521;48.148;-1.656;2023-03-11T22:38:06;18.60;85.40
26964;DHT22;14521;48.148;-1.656;2023-03-11T22:41:28;18.60;85.30
26964;DHT22;14521;48.148;-1.656;2023-03-11T22:44:50;18.60;85.30
26964;DHT22;14521;48.148;-1.656;2023-03-11T22:48:12;18.60;85.50
26964;DHT22;14521;48.148;-1.656;2023-03-11T22:51:35;18.60;85.60
26964;DHT22;14521;48.148;-1.656;2023-03-11T22:54:57;18.60;85.70
26964;DHT22;14521;48.148;-1.656;2023-03-11T22:58:19;18.50;85.50
26964;DHT22;14521;48.148;-1.656;2023-03-11T23:01:41;18.60;85.40